Řízení letového provozu České republiky
Letiste: LKKV Aktualizace: 12.11.2018 19:01:06  UTC
 METAR LKKV 12.11. 19:00 ...
METAR LKKV 121900Z 12005KT 1200 R29/P2000N BR OVC002 04/04 Q1022 RMK REG QNH 1018=
 TAF LKKV 12.11. 17:00 ...
TAF LKKV 121700Z 1218/1400 11006KT 2500 BR BKN002      TEMPO 1218/1308 1200 BR BKN001      PROB30 TEMPO 1222/1307 0300 FG      BECMG 1308/1310 26008KT 8000 BKN020      TEMPO 1310/1316 27010G20KT 4000 -RA BR BKN013=